sensor_id;sensor_type;location;lat;lon;timestamp;P1;durP1;ratioP1;P2;durP2;ratioP2
33190;SDS011;19554;42.652;23.364;2023-03-23T00:01:11;63.20;;;34.53;;
33190;SDS011;19554;42.652;23.364;2023-03-23T00:03:39;62.40;;;33.10;;
33190;SDS011;19554;42.652;23.364;2023-03-23T00:06:05;60.75;;;33.90;;
33190;SDS011;19554;42.652;23.364;2023-03-23T00:08:32;61.03;;;33.70;;
33190;SDS011;19554;42.652;23.364;2023-03-23T00:11:14;59.85;;;33.55;;
33190;SDS011;19554;42.652;23.364;2023-03-23T00:13:48;59.10;;;31.75;;
33190;SDS011;19554;42.652;23.364;2023-03-23T00:16:22;80.45;;;33.70;;
33190;SDS011;19554;42.652;23.364;2023-03-23T00:19:02;66.53;;;32.75;;
33190;SDS011;19554;42.652;23.364;2023-03-23T00:21:32;58.55;;;32.38;;
33190;SDS011;19554;42.652;23.364;2023-03-23T00:24:06;52.55;;;31.20;;
33190;SDS011;19554;42.652;23.364;2023-03-23T00:26:38;47.58;;;30.58;;
33190;SDS011;19554;42.652;23.364;2023-03-23T00:31:32;77.55;;;33.72;;
33190;SDS011;19554;42.652;23.364;2023-03-23T00:34:00;69.38;;;34.00;;
33190;SDS011;19554;42.652;23.364;2023-03-23T00:36:28;60.80;;;34.88;;
33190;SDS011;19554;42.652;23.364;2023-03-23T00:39:00;58.22;;;33.92;;
33190;SDS011;19554;42.652;23.364;2023-03-23T00:41:27;50.80;;;30.08;;
33190;SDS011;19554;42.652;23.364;2023-03-23T00:43:56;49.60;;;30.05;;
33190;SDS011;19554;42.652;23.364;2023-03-23T00:46:23;45.15;;;27.73;;
33190;SDS011;19554;42.652;23.364;2023-03-23T00:48:49;43.22;;;26.15;;
33190;SDS011;19554;42.652;23.364;2023-03-23T00:51:15;46.63;;;26.15;;
33190;SDS011;19554;42.652;23.364;2023-03-23T00:53:41;37.70;;;23.88;;
33190;SDS011;19554;42.652;23.364;2023-03-23T00:56:07;37.15;;;23.40;;
33190;SDS011;19554;42.652;23.364;2023-03-23T00:58:33;38.30;;;23.17;;
33190;SDS011;19554;42.652;23.364;2023-03-23T01:00:59;33.35;;;20.33;;
33190;SDS011;19554;42.652;23.364;2023-03-23T01:03:25;27.40;;;19.13;;
33190;SDS011;19554;42.652;23.364;2023-03-23T01:05:51;30.00;;;18.17;;
33190;SDS011;19554;42.652;23.364;2023-03-23T01:08:17;26.00;;;17.15;;
33190;SDS011;19554;42.652;23.364;2023-03-23T01:10:44;30.70;;;18.58;;
33190;SDS011;19554;42.652;23.364;2023-03-23T01:13:10;29.17;;;18.67;;
33190;SDS011;19554;42.652;23.364;2023-03-23T01:15:36;34.25;;;19.10;;
33190;SDS011;19554;42.652;23.364;2023-03-23T01:18:02;28.08;;;18.20;;
33190;SDS011;19554;42.652;23.364;2023-03-23T01:20:28;32.05;;;19.40;;
33190;SDS011;19554;42.652;23.364;2023-03-23T01:22:59;24.95;;;18.45;;
33190;SDS011;19554;42.652;23.364;2023-03-23T01:25:29;30.25;;;17.55;;
33190;SDS011;19554;42.652;23.364;2023-03-23T01:27:56;25.83;;;16.73;;
33190;SDS011;19554;42.652;23.364;2023-03-23T01:30:22;31.13;;;16.58;;
33190;SDS011;19554;42.652;23.364;2023-03-23T01:32:49;22.65;;;15.20;;
33190;SDS011;19554;42.652;23.364;2023-03-23T01:35:16;24.58;;;14.80;;
33190;SDS011;19554;42.652;23.364;2023-03-23T01:37:42;24.38;;;14.90;;
33190;SDS011;19554;42.652;23.364;2023-03-23T01:40:07;28.73;;;17.83;;
33190;SDS011;19554;42.652;23.364;2023-03-23T01:42:35;28.30;;;17.08;;
33190;SDS011;19554;42.652;23.364;2023-03-23T01:45:20;31.02;;;18.23;;
33190;SDS011;19554;42.652;23.364;2023-03-23T01:50:23;33.05;;;20.35;;
33190;SDS011;19554;42.652;23.364;2023-03-23T01:52:52;31.73;;;19.20;;
33190;SDS011;19554;42.652;23.364;2023-03-23T01:55:20;33.03;;;19.58;;
33190;SDS011;19554;42.652;23.364;2023-03-23T01:57:46;36.85;;;22.45;;
33190;SDS011;19554;42.652;23.364;2023-03-23T02:00:13;33.60;;;21.40;;
33190;SDS011;19554;42.652;23.364;2023-03-23T02:02:43;37.50;;;21.90;;
33190;SDS011;19554;42.652;23.364;2023-03-23T02:05:15;36.55;;;22.17;;
33190;SDS011;19554;42.652;23.364;2023-03-23T02:07:46;40.80;;;22.55;;
33190;SDS011;19554;42.652;23.364;2023-03-23T02:10:12;35.40;;;22.25;;
33190;SDS011;19554;42.652;23.364;2023-03-23T02:12:38;36.17;;;22.42;;
33190;SDS011;19554;42.652;23.364;2023-03-23T02:15:03;37.38;;;24.27;;
33190;SDS011;19554;42.652;23.364;2023-03-23T02:30:48;37.90;;;23.75;;
33190;SDS011;19554;42.652;23.364;2023-03-23T02:41:34;40.80;;;24.25;;
33190;SDS011;19554;42.652;23.364;2023-03-23T02:44:05;34.05;;;21.88;;
33190;SDS011;19554;42.652;23.364;2023-03-23T02:46:32;36.33;;;22.08;;
33190;SDS011;19554;42.652;23.364;2023-03-23T02:49:00;35.75;;;22.67;;
33190;SDS011;19554;42.652;23.364;2023-03-23T02:51:28;37.00;;;22.67;;
33190;SDS011;19554;42.652;23.364;2023-03-23T02:53:55;38.78;;;23.13;;
33190;SDS011;19554;42.652;23.364;2023-03-23T02:56:23;50.80;;;28.92;;
33190;SDS011;19554;42.652;23.364;2023-03-23T02:58:53;48.05;;;30.27;;
33190;SDS011;19554;42.652;23.364;2023-03-23T03:03:51;44.97;;;29.38;;
33190;SDS011;19554;42.652;23.364;2023-03-23T03:07:19;53.15;;;31.60;;
33190;SDS011;19554;42.652;23.364;2023-03-23T03:09:27;53.65;;;29.73;;
33190;SDS011;19554;42.652;23.364;2023-03-23T03:12:04;60.85;;;34.70;;
33190;SDS011;19554;42.652;23.364;2023-03-23T03:14:41;65.40;;;37.45;;
33190;SDS011;19554;42.652;23.364;2023-03-23T03:19:49;77.15;;;37.45;;
33190;SDS011;19554;42.652;23.364;2023-03-23T03:22:17;109.57;;;41.75;;
33190;SDS011;19554;42.652;23.364;2023-03-23T03:24:46;74.13;;;39.92;;
33190;SDS011;19554;42.652;23.364;2023-03-23T03:27:14;69.72;;;39.63;;
33190;SDS011;19554;42.652;23.364;2023-03-23T03:29:42;104.85;;;40.10;;
33190;SDS011;19554;42.652;23.364;2023-03-23T03:32:14;61.97;;;37.20;;
33190;SDS011;19554;42.652;23.364;2023-03-23T03:34:42;50.08;;;30.25;;
33190;SDS011;19554;42.652;23.364;2023-03-23T03:37:07;36.65;;;23.30;;
33190;SDS011;19554;42.652;23.364;2023-03-23T03:39:34;33.22;;;20.58;;
33190;SDS011;19554;42.652;23.364;2023-03-23T03:42:01;35.95;;;23.10;;
33190;SDS011;19554;42.652;23.364;2023-03-23T03:44:26;38.22;;;21.95;;
33190;SDS011;19554;42.652;23.364;2023-03-23T03:46:52;37.08;;;22.50;;
33190;SDS011;19554;42.652;23.364;2023-03-23T03:49:17;39.75;;;24.90;;
33190;SDS011;19554;42.652;23.364;2023-03-23T03:51:43;44.08;;;27.70;;
33190;SDS011;19554;42.652;23.364;2023-03-23T03:54:09;43.25;;;26.92;;
33190;SDS011;19554;42.652;23.364;2023-03-23T03:56:35;45.00;;;26.80;;
33190;SDS011;19554;42.652;23.364;2023-03-23T03:59:05;44.35;;;26.63;;
33190;SDS011;19554;42.652;23.364;2023-03-23T04:01:31;50.58;;;29.27;;
33190;SDS011;19554;42.652;23.364;2023-03-23T04:03:57;49.53;;;30.95;;
33190;SDS011;19554;42.652;23.364;2023-03-23T04:06:22;48.03;;;30.33;;
33190;SDS011;19554;42.652;23.364;2023-03-23T04:08:47;54.40;;;31.55;;
33190;SDS011;19554;42.652;23.364;2023-03-23T04:11:13;49.33;;;30.25;;
33190;SDS011;19554;42.652;23.364;2023-03-23T04:13:40;52.20;;;31.13;;
33190;SDS011;19554;42.652;23.364;2023-03-23T04:16:06;57.47;;;30.45;;
33190;SDS011;19554;42.652;23.364;2023-03-23T04:18:33;53.50;;;30.40;;
33190;SDS011;19554;42.652;23.364;2023-03-23T04:20:59;51.38;;;31.27;;
33190;SDS011;19554;42.652;23.364;2023-03-23T04:23:26;61.78;;;31.20;;
33190;SDS011;19554;42.652;23.364;2023-03-23T04:25:55;50.03;;;29.35;;
33190;SDS011;19554;42.652;23.364;2023-03-23T04:28:22;46.35;;;28.90;;
33190;SDS011;19554;42.652;23.364;2023-03-23T04:30:49;37.28;;;24.52;;
33190;SDS011;19554;42.652;23.364;2023-03-23T04:33:18;45.00;;;28.15;;
33190;SDS011;19554;42.652;23.364;2023-03-23T04:35:44;46.60;;;29.58;;
33190;SDS011;19554;42.652;23.364;2023-03-23T04:38:13;52.30;;;32.22;;
33190;SDS011;19554;42.652;23.364;2023-03-23T04:40:40;59.85;;;36.22;;
33190;SDS011;19554;42.652;23.364;2023-03-23T04:43:06;53.15;;;31.85;;
33190;SDS011;19554;42.652;23.364;2023-03-23T04:45:32;54.38;;;32.42;;
33190;SDS011;19554;42.652;23.364;2023-03-23T04:47:59;57.53;;;34.13;;
33190;SDS011;19554;42.652;23.364;2023-03-23T04:50:29;54.67;;;32.80;;
33190;SDS011;19554;42.652;23.364;2023-03-23T04:52:58;48.13;;;29.23;;
33190;SDS011;19554;42.652;23.364;2023-03-23T04:55:24;52.58;;;29.92;;
33190;SDS011;19554;42.652;23.364;2023-03-23T04:57:50;52.53;;;33.15;;
33190;SDS011;19554;42.652;23.364;2023-03-23T05:00:16;56.65;;;31.13;;
33190;SDS011;19554;42.652;23.364;2023-03-23T05:02:46;54.65;;;32.25;;
33190;SDS011;19554;42.652;23.364;2023-03-23T05:05:16;54.22;;;31.98;;
33190;SDS011;19554;42.652;23.364;2023-03-23T05:07:42;57.08;;;31.95;;
33190;SDS011;19554;42.652;23.364;2023-03-23T05:10:08;55.88;;;31.90;;
33190;SDS011;19554;42.652;23.364;2023-03-23T05:12:35;50.53;;;31.55;;
33190;SDS011;19554;42.652;23.364;2023-03-23T05:15:02;52.97;;;33.08;;
33190;SDS011;19554;42.652;23.364;2023-03-23T05:17:28;60.08;;;34.72;;
33190;SDS011;19554;42.652;23.364;2023-03-23T05:19:55;54.05;;;33.50;;
33190;SDS011;19554;42.652;23.364;2023-03-23T05:22:21;59.85;;;33.22;;
33190;SDS011;19554;42.652;23.364;2023-03-23T05:24:48;57.85;;;33.38;;
33190;SDS011;19554;42.652;23.364;2023-03-23T05:27:16;61.13;;;36.28;;
33190;SDS011;19554;42.652;23.364;2023-03-23T05:29:43;57.30;;;35.30;;
33190;SDS011;19554;42.652;23.364;2023-03-23T05:32:10;57.80;;;35.08;;
33190;SDS011;19554;42.652;23.364;2023-03-23T05:34:36;60.75;;;35.38;;
33190;SDS011;19554;42.652;23.364;2023-03-23T05:37:02;57.88;;;34.88;;
33190;SDS011;19554;42.652;23.364;2023-03-23T05:39:28;59.90;;;35.80;;
33190;SDS011;19554;42.652;23.364;2023-03-23T05:41:56;62.97;;;35.97;;
33190;SDS011;19554;42.652;23.364;2023-03-23T05:44:21;55.40;;;34.65;;
33190;SDS011;19554;42.652;23.364;2023-03-23T05:46:47;58.80;;;34.50;;
33190;SDS011;19554;42.652;23.364;2023-03-23T05:49:13;54.33;;;31.25;;
33190;SDS011;19554;42.652;23.364;2023-03-23T05:51:41;48.00;;;29.63;;
33190;SDS011;19554;42.652;23.364;2023-03-23T05:54:07;51.20;;;29.42;;
33190;SDS011;19554;42.652;23.364;2023-03-23T05:56:33;48.08;;;28.08;;
33190;SDS011;19554;42.652;23.364;2023-03-23T05:58:59;50.35;;;28.70;;
33190;SDS011;19554;42.652;23.364;2023-03-23T06:01:24;50.47;;;28.40;;
33190;SDS011;19554;42.652;23.364;2023-03-23T06:03:50;41.67;;;26.95;;
33190;SDS011;19554;42.652;23.364;2023-03-23T06:06:19;45.03;;;26.63;;
33190;SDS011;19554;42.652;23.364;2023-03-23T06:08:45;53.70;;;28.80;;
33190;SDS011;19554;42.652;23.364;2023-03-23T06:11:11;47.00;;;29.33;;
33190;SDS011;19554;42.652;23.364;2023-03-23T06:13:36;42.65;;;26.77;;
33190;SDS011;19554;42.652;23.364;2023-03-23T06:16:02;54.15;;;26.63;;
33190;SDS011;19554;42.652;23.364;2023-03-23T06:18:29;47.60;;;27.90;;
33190;SDS011;19554;42.652;23.364;2023-03-23T06:20:58;43.25;;;26.52;;
33190;SDS011;19554;42.652;23.364;2023-03-23T06:23:24;46.45;;;28.58;;
33190;SDS011;19554;42.652;23.364;2023-03-23T06:25:49;54.15;;;28.38;;
33190;SDS011;19554;42.652;23.364;2023-03-23T06:28:19;51.85;;;28.70;;
33190;SDS011;19554;42.652;23.364;2023-03-23T06:30:45;49.58;;;26.98;;
33190;SDS011;19554;42.652;23.364;2023-03-23T06:33:10;43.60;;;28.00;;
33190;SDS011;19554;42.652;23.364;2023-03-23T06:35:36;49.65;;;29.70;;
33190;SDS011;19554;42.652;23.364;2023-03-23T06:38:01;45.28;;;29.08;;
33190;SDS011;19554;42.652;23.364;2023-03-23T06:40:27;44.50;;;28.23;;
33190;SDS011;19554;42.652;23.364;2023-03-23T06:42:54;45.33;;;26.90;;
33190;SDS011;19554;42.652;23.364;2023-03-23T06:45:21;42.83;;;26.50;;
33190;SDS011;19554;42.652;23.364;2023-03-23T06:47:46;41.03;;;24.85;;
33190;SDS011;19554;42.652;23.364;2023-03-23T06:50:15;39.90;;;25.15;;
33190;SDS011;19554;42.652;23.364;2023-03-23T06:52:44;39.20;;;26.25;;
33190;SDS011;19554;42.652;23.364;2023-03-23T06:55:11;43.38;;;25.75;;
33190;SDS011;19554;42.652;23.364;2023-03-23T06:57:38;40.97;;;25.77;;
33190;SDS011;19554;42.652;23.364;2023-03-23T07:00:03;36.83;;;23.75;;
33190;SDS011;19554;42.652;23.364;2023-03-23T07:02:31;41.45;;;23.83;;
33190;SDS011;19554;42.652;23.364;2023-03-23T07:04:56;36.67;;;22.83;;
33190;SDS011;19554;42.652;23.364;2023-03-23T07:07:22;31.77;;;21.42;;
33190;SDS011;19554;42.652;23.364;2023-03-23T07:09:47;34.70;;;22.90;;
33190;SDS011;19554;42.652;23.364;2023-03-23T07:12:13;38.70;;;23.00;;
33190;SDS011;19554;42.652;23.364;2023-03-23T07:14:39;40.05;;;23.42;;
33190;SDS011;19554;42.652;23.364;2023-03-23T07:17:04;36.55;;;22.65;;
33190;SDS011;19554;42.652;23.364;2023-03-23T07:19:30;39.88;;;23.20;;
33190;SDS011;19554;42.652;23.364;2023-03-23T07:21:56;31.70;;;19.75;;
33190;SDS011;19554;42.652;23.364;2023-03-23T07:24:22;35.60;;;21.50;;
33190;SDS011;19554;42.652;23.364;2023-03-23T07:26:47;31.15;;;18.08;;
33190;SDS011;19554;42.652;23.364;2023-03-23T07:29:12;33.40;;;17.13;;
33190;SDS011;19554;42.652;23.364;2023-03-23T07:31:38;36.53;;;18.27;;
33190;SDS011;19554;42.652;23.364;2023-03-23T07:34:03;30.20;;;20.88;;
33190;SDS011;19554;42.652;23.364;2023-03-23T07:36:29;31.35;;;19.48;;
33190;SDS011;19554;42.652;23.364;2023-03-23T07:38:55;39.83;;;20.35;;
33190;SDS011;19554;42.652;23.364;2023-03-23T07:41:22;39.05;;;22.75;;
33190;SDS011;19554;42.652;23.364;2023-03-23T07:43:48;30.70;;;20.33;;
33190;SDS011;19554;42.652;23.364;2023-03-23T07:46:13;33.40;;;21.65;;
33190;SDS011;19554;42.652;23.364;2023-03-23T07:48:39;46.42;;;25.77;;
33190;SDS011;19554;42.652;23.364;2023-03-23T07:51:05;43.97;;;25.13;;
33190;SDS011;19554;42.652;23.364;2023-03-23T07:53:32;44.78;;;25.30;;
33190;SDS011;19554;42.652;23.364;2023-03-23T07:55:58;41.95;;;25.60;;
33190;SDS011;19554;42.652;23.364;2023-03-23T07:58:24;41.55;;;25.73;;
33190;SDS011;19554;42.652;23.364;2023-03-23T08:00:51;48.75;;;25.77;;
33190;SDS011;19554;42.652;23.364;2023-03-23T08:03:17;42.38;;;25.67;;
33190;SDS011;19554;42.652;23.364;2023-03-23T08:05:43;43.33;;;24.52;;
33190;SDS011;19554;42.652;23.364;2023-03-23T08:08:09;42.22;;;22.80;;
33190;SDS011;19554;42.652;23.364;2023-03-23T08:10:34;35.08;;;23.10;;
33190;SDS011;19554;42.652;23.364;2023-03-23T08:13:01;55.90;;;24.38;;
33190;SDS011;19554;42.652;23.364;2023-03-23T08:15:27;33.40;;;20.63;;
33190;SDS011;19554;42.652;23.364;2023-03-23T08:17:53;35.15;;;21.88;;
33190;SDS011;19554;42.652;23.364;2023-03-23T08:20:19;32.50;;;22.27;;
33190;SDS011;19554;42.652;23.364;2023-03-23T08:22:50;29.33;;;21.55;;
33190;SDS011;19554;42.652;23.364;2023-03-23T08:25:17;35.20;;;22.77;;
33190;SDS011;19554;42.652;23.364;2023-03-23T08:27:43;35.70;;;22.77;;
33190;SDS011;19554;42.652;23.364;2023-03-23T08:30:14;26.40;;;20.13;;
33190;SDS011;19554;42.652;23.364;2023-03-23T08:32:41;32.00;;;21.60;;
33190;SDS011;19554;42.652;23.364;2023-03-23T08:35:08;31.67;;;19.42;;
33190;SDS011;19554;42.652;23.364;2023-03-23T08:37:34;33.03;;;21.40;;
33190;SDS011;19554;42.652;23.364;2023-03-23T08:40:00;43.53;;;22.98;;
33190;SDS011;19554;42.652;23.364;2023-03-23T08:42:32;35.95;;;21.60;;
33190;SDS011;19554;42.652;23.364;2023-03-23T08:44:57;31.10;;;19.77;;
33190;SDS011;19554;42.652;23.364;2023-03-23T08:47:23;33.17;;;18.60;;
33190;SDS011;19554;42.652;23.364;2023-03-23T08:49:49;27.88;;;15.50;;
33190;SDS011;19554;42.652;23.364;2023-03-23T08:52:17;24.85;;;16.17;;
33190;SDS011;19554;42.652;23.364;2023-03-23T08:54:43;19.75;;;13.70;;
33190;SDS011;19554;42.652;23.364;2023-03-23T08:57:12;19.10;;;12.00;;
33190;SDS011;19554;42.652;23.364;2023-03-23T08:59:38;18.08;;;11.70;;
33190;SDS011;19554;42.652;23.364;2023-03-23T09:02:03;11.88;;;9.63;;
33190;SDS011;19554;42.652;23.364;2023-03-23T09:04:29;17.52;;;10.95;;
33190;SDS011;19554;42.652;23.364;2023-03-23T09:06:55;18.40;;;10.75;;
33190;SDS011;19554;42.652;23.364;2023-03-23T09:09:22;14.30;;;9.95;;
33190;SDS011;19554;42.652;23.364;2023-03-23T09:11:47;18.88;;;9.93;;
33190;SDS011;19554;42.652;23.364;2023-03-23T09:14:13;14.88;;;8.35;;
33190;SDS011;19554;42.652;23.364;2023-03-23T09:16:38;9.30;;;8.25;;
33190;SDS011;19554;42.652;23.364;2023-03-23T09:19:05;15.57;;;9.25;;
33190;SDS011;19554;42.652;23.364;2023-03-23T09:21:30;15.65;;;10.40;;
33190;SDS011;19554;42.652;23.364;2023-03-23T09:23:56;13.10;;;9.27;;
33190;SDS011;19554;42.652;23.364;2023-03-23T09:26:26;14.20;;;9.55;;
33190;SDS011;19554;42.652;23.364;2023-03-23T09:28:51;15.25;;;9.68;;
33190;SDS011;19554;42.652;23.364;2023-03-23T09:31:17;15.65;;;10.40;;
33190;SDS011;19554;42.652;23.364;2023-03-23T09:33:45;21.48;;;10.70;;
33190;SDS011;19554;42.652;23.364;2023-03-23T09:36:11;18.27;;;10.93;;
33190;SDS011;19554;42.652;23.364;2023-03-23T09:38:39;30.35;;;10.85;;
33190;SDS011;19554;42.652;23.364;2023-03-23T09:44:30;17.45;;;9.70;;
33190;SDS011;19554;42.652;23.364;2023-03-23T09:46:56;15.55;;;10.10;;
33190;SDS011;19554;42.652;23.364;2023-03-23T09:49:33;23.98;;;11.50;;
33190;SDS011;19554;42.652;23.364;2023-03-23T09:52:15;12.80;;;8.98;;
33190;SDS011;19554;42.652;23.364;2023-03-23T09:57:26;12.48;;;8.45;;
33190;SDS011;19554;42.652;23.364;2023-03-23T10:03:12;14.68;;;9.25;;
33190;SDS011;19554;42.652;23.364;2023-03-23T10:05:46;13.13;;;9.68;;
33190;SDS011;19554;42.652;23.364;2023-03-23T10:15:55;13.02;;;8.40;;
33190;SDS011;19554;42.652;23.364;2023-03-23T10:18:27;14.35;;;8.68;;
33190;SDS011;19554;42.652;23.364;2023-03-23T10:20:58;12.73;;;7.82;;
33190;SDS011;19554;42.652;23.364;2023-03-23T10:26:11;10.43;;;7.88;;
33190;SDS011;19554;42.652;23.364;2023-03-23T10:28:48;20.40;;;8.48;;
33190;SDS011;19554;42.652;23.364;2023-03-23T10:31:39;25.92;;;9.02;;
33190;SDS011;19554;42.652;23.364;2023-03-23T10:34:22;20.05;;;9.23;;
33190;SDS011;19554;42.652;23.364;2023-03-23T10:37:02;16.30;;;8.25;;
33190;SDS011;19554;42.652;23.364;2023-03-23T10:39:41;20.13;;;9.20;;
33190;SDS011;19554;42.652;23.364;2023-03-23T10:42:33;14.82;;;8.70;;
33190;SDS011;19554;42.652;23.364;2023-03-23T10:45:09;16.38;;;9.10;;
33190;SDS011;19554;42.652;23.364;2023-03-23T10:47:41;14.15;;;8.98;;
33190;SDS011;19554;42.652;23.364;2023-03-23T10:50:12;21.13;;;8.05;;
33190;SDS011;19554;42.652;23.364;2023-03-23T10:52:43;11.48;;;8.23;;
33190;SDS011;19554;42.652;23.364;2023-03-23T10:57:44;14.13;;;8.50;;
33190;SDS011;19554;42.652;23.364;2023-03-23T11:00:19;12.70;;;8.27;;
33190;SDS011;19554;42.652;23.364;2023-03-23T11:03:04;13.70;;;9.02;;
33190;SDS011;19554;42.652;23.364;2023-03-23T11:06:08;14.57;;;9.37;;
33190;SDS011;19554;42.652;23.364;2023-03-23T11:08:37;11.00;;;8.27;;
33190;SDS011;19554;42.652;23.364;2023-03-23T11:11:26;11.45;;;8.25;;
33190;SDS011;19554;42.652;23.364;2023-03-23T11:14:00;11.98;;;7.88;;
33190;SDS011;19554;42.652;23.364;2023-03-23T11:16:28;14.05;;;8.32;;
33190;SDS011;19554;42.652;23.364;2023-03-23T11:18:59;11.85;;;8.05;;
33190;SDS011;19554;42.652;23.364;2023-03-23T11:21:36;13.02;;;8.23;;
33190;SDS011;19554;42.652;23.364;2023-03-23T11:24:03;11.80;;;8.18;;
33190;SDS011;19554;42.652;23.364;2023-03-23T11:26:31;12.40;;;8.30;;
33190;SDS011;19554;42.652;23.364;2023-03-23T11:29:16;10.25;;;7.43;;
33190;SDS011;19554;42.652;23.364;2023-03-23T11:31:47;11.15;;;7.97;;
33190;SDS011;19554;42.652;23.364;2023-03-23T11:34:24;13.88;;;8.77;;
33190;SDS011;19554;42.652;23.364;2023-03-23T11:36:52;19.92;;;10.48;;
33190;SDS011;19554;42.652;23.364;2023-03-23T11:39:27;13.32;;;7.43;;
33190;SDS011;19554;42.652;23.364;2023-03-23T11:41:54;12.63;;;8.73;;
33190;SDS011;19554;42.652;23.364;2023-03-23T11:44:22;12.13;;;8.75;;
33190;SDS011;19554;42.652;23.364;2023-03-23T11:47:15;15.02;;;8.75;;
33190;SDS011;19554;42.652;23.364;2023-03-23T11:52:36;12.95;;;8.13;;
33190;SDS011;19554;42.652;23.364;2023-03-23T11:55:11;12.90;;;7.82;;
33190;SDS011;19554;42.652;23.364;2023-03-23T11:57:39;14.88;;;8.77;;
33190;SDS011;19554;42.652;23.364;2023-03-23T12:00:22;11.00;;;8.23;;
33190;SDS011;19554;42.652;23.364;2023-03-23T12:16:51;9.82;;;7.68;;
33190;SDS011;19554;42.652;23.364;2023-03-23T12:19:31;12.00;;;7.70;;
33190;SDS011;19554;42.652;23.364;2023-03-23T12:27:42;14.00;;;8.18;;
33190;SDS011;19554;42.652;23.364;2023-03-23T12:48:46;13.10;;;7.55;;
33190;SDS011;19554;42.652;23.364;2023-03-23T12:51:21;9.20;;;7.35;;
33190;SDS011;19554;42.652;23.364;2023-03-23T12:56:53;9.63;;;7.32;;
33190;SDS011;19554;42.652;23.364;2023-03-23T13:02:19;9.05;;;6.80;;
33190;SDS011;19554;42.652;23.364;2023-03-23T13:04:50;13.50;;;7.65;;
33190;SDS011;19554;42.652;23.364;2023-03-23T13:07:26;12.27;;;7.35;;
33190;SDS011;19554;42.652;23.364;2023-03-23T13:12:34;9.70;;;7.27;;
33190;SDS011;19554;42.652;23.364;2023-03-23T13:23:24;10.40;;;7.25;;
33190;SDS011;19554;42.652;23.364;2023-03-23T13:28:27;10.00;;;7.30;;
33190;SDS011;19554;42.652;23.364;2023-03-23T13:31:20;9.05;;;7.57;;
33190;SDS011;19554;42.652;23.364;2023-03-23T13:33:51;9.88;;;6.90;;
33190;SDS011;19554;42.652;23.364;2023-03-23T13:36:31;10.25;;;7.75;;
33190;SDS011;19554;42.652;23.364;2023-03-23T13:39:01;10.82;;;7.80;;
33190;SDS011;19554;42.652;23.364;2023-03-23T13:41:29;12.65;;;7.75;;
33190;SDS011;19554;42.652;23.364;2023-03-23T13:47:28;8.70;;;6.75;;
33190;SDS011;19554;42.652;23.364;2023-03-23T13:58:26;11.10;;;7.50;;
33190;SDS011;19554;42.652;23.364;2023-03-23T14:02:59;12.52;;;7.10;;
33190;SDS011;19554;42.652;23.364;2023-03-23T14:05:36;10.65;;;6.97;;
33190;SDS011;19554;42.652;23.364;2023-03-23T14:11:00;11.13;;;7.90;;
33190;SDS011;19554;42.652;23.364;2023-03-23T14:13:37;12.77;;;7.88;;
33190;SDS011;19554;42.652;23.364;2023-03-23T14:16:04;11.55;;;8.20;;
33190;SDS011;19554;42.652;23.364;2023-03-23T14:18:55;9.50;;;6.63;;
33190;SDS011;19554;42.652;23.364;2023-03-23T14:21:48;11.68;;;7.20;;
33190;SDS011;19554;42.652;23.364;2023-03-23T14:24:19;13.90;;;7.72;;
33190;SDS011;19554;42.652;23.364;2023-03-23T14:26:48;10.55;;;6.78;;
33190;SDS011;19554;42.652;23.364;2023-03-23T14:29:17;9.73;;;7.07;;
33190;SDS011;19554;42.652;23.364;2023-03-23T14:31:43;11.05;;;7.47;;
33190;SDS011;19554;42.652;23.364;2023-03-23T14:34:13;11.32;;;7.43;;
33190;SDS011;19554;42.652;23.364;2023-03-23T14:36:43;10.23;;;7.30;;
33190;SDS011;19554;42.652;23.364;2023-03-23T14:42:01;11.15;;;6.43;;
33190;SDS011;19554;42.652;23.364;2023-03-23T14:44:30;9.32;;;7.05;;
33190;SDS011;19554;42.652;23.364;2023-03-23T14:47:00;11.23;;;6.97;;
33190;SDS011;19554;42.652;23.364;2023-03-23T14:49:30;8.00;;;6.28;;
33190;SDS011;19554;42.652;23.364;2023-03-23T14:52:02;10.30;;;7.20;;
33190;SDS011;19554;42.652;23.364;2023-03-23T14:54:34;13.23;;;7.20;;
33190;SDS011;19554;42.652;23.364;2023-03-23T14:57:02;11.05;;;6.80;;
33190;SDS011;19554;42.652;23.364;2023-03-23T14:59:35;9.85;;;6.75;;
33190;SDS011;19554;42.652;23.364;2023-03-23T15:02:01;9.82;;;6.88;;
33190;SDS011;19554;42.652;23.364;2023-03-23T15:04:26;16.58;;;8.07;;
33190;SDS011;19554;42.652;23.364;2023-03-23T15:06:58;10.13;;;7.47;;
33190;SDS011;19554;42.652;23.364;2023-03-23T15:09:26;10.73;;;7.07;;
33190;SDS011;19554;42.652;23.364;2023-03-23T15:11:59;10.30;;;7.32;;
33190;SDS011;19554;42.652;23.364;2023-03-23T15:14:32;9.95;;;7.47;;
33190;SDS011;19554;42.652;23.364;2023-03-23T15:17:02;12.30;;;7.32;;
33190;SDS011;19554;42.652;23.364;2023-03-23T15:19:28;11.10;;;8.13;;
33190;SDS011;19554;42.652;23.364;2023-03-23T15:22:06;14.98;;;7.85;;
33190;SDS011;19554;42.652;23.364;2023-03-23T15:24:39;13.15;;;8.10;;
33190;SDS011;19554;42.652;23.364;2023-03-23T15:29:31;12.93;;;7.20;;
33190;SDS011;19554;42.652;23.364;2023-03-23T15:31:57;10.77;;;7.30;;
33190;SDS011;19554;42.652;23.364;2023-03-23T15:37:51;12.43;;;7.75;;
33190;SDS011;19554;42.652;23.364;2023-03-23T15:39:55;14.02;;;7.65;;
33190;SDS011;19554;42.652;23.364;2023-03-23T15:42:24;8.80;;;6.93;;
33190;SDS011;19554;42.652;23.364;2023-03-23T15:44:56;11.67;;;7.63;;
33190;SDS011;19554;42.652;23.364;2023-03-23T15:52:45;11.88;;;7.65;;
33190;SDS011;19554;42.652;23.364;2023-03-23T15:55:35;11.20;;;7.15;;
33190;SDS011;19554;42.652;23.364;2023-03-23T15:58:07;11.95;;;7.28;;
33190;SDS011;19554;42.652;23.364;2023-03-23T16:00:35;16.38;;;7.55;;
33190;SDS011;19554;42.652;23.364;2023-03-23T16:03:01;14.70;;;6.93;;
33190;SDS011;19554;42.652;23.364;2023-03-23T16:05:30;10.23;;;7.05;;
33190;SDS011;19554;42.652;23.364;2023-03-23T16:07:56;11.57;;;7.68;;
33190;SDS011;19554;42.652;23.364;2023-03-23T16:10:23;11.32;;;7.28;;
33190;SDS011;19554;42.652;23.364;2023-03-23T16:12:49;12.73;;;7.05;;
33190;SDS011;19554;42.652;23.364;2023-03-23T16:15:15;12.23;;;6.97;;
33190;SDS011;19554;42.652;23.364;2023-03-23T16:17:41;13.70;;;7.75;;
33190;SDS011;19554;42.652;23.364;2023-03-23T16:20:11;10.63;;;7.13;;
33190;SDS011;19554;42.652;23.364;2023-03-23T16:22:42;10.10;;;6.75;;
33190;SDS011;19554;42.652;23.364;2023-03-23T16:25:08;10.70;;;7.00;;
33190;SDS011;19554;42.652;23.364;2023-03-23T16:27:34;17.20;;;6.55;;
33190;SDS011;19554;42.652;23.364;2023-03-23T16:29:59;11.10;;;7.25;;
33190;SDS011;19554;42.652;23.364;2023-03-23T16:32:27;7.85;;;6.00;;
33190;SDS011;19554;42.652;23.364;2023-03-23T16:34:52;12.60;;;7.20;;
33190;SDS011;19554;42.652;23.364;2023-03-23T16:37:18;11.85;;;6.85;;
33190;SDS011;19554;42.652;23.364;2023-03-23T16:39:45;12.73;;;6.13;;
33190;SDS011;19554;42.652;23.364;2023-03-23T16:42:10;8.70;;;6.43;;
33190;SDS011;19554;42.652;23.364;2023-03-23T16:44:35;12.95;;;6.55;;
33190;SDS011;19554;42.652;23.364;2023-03-23T16:47:01;14.95;;;7.05;;
33190;SDS011;19554;42.652;23.364;2023-03-23T16:49:26;17.73;;;7.43;;